• Join FlightAware (Why Join?)
  • Login
  • US Flag 
07:50PM EDT


 

Airport Tracker/Info


-or-


 

Live Flight TrackerFlight Track Log ✈ VHT11 ✈ 24-Jun-2013 ✈ KLAS - KLAX

Flight Track Log - Related Links

Times and Time Zones

All times are in EDT time to prevent confusion due to time zone crossing. See the VHT11 flight status page for this flight to view local times or setup timezone preferences in your user account.

Time Position Orientation Groundspeed Altitude Reporting Facility
EDT Latitude Longitude Course Direction KTS MPH feet Rate Location/Type
01:36AM 36.0611 -115.1786 206° Southwest 168 193 3,100  Level Los Angeles Center
01:36AM 36.0306 -115.1967 206° Southwest 207 238 4,000 2,160 Climbing Los Angeles Center
01:37AM 35.9814 -115.2497 221° Southwest 249 287 6,700 2,580 Climbing Los Angeles Center
01:39AM 35.8894 -115.2594 185° South 261 300 10,100 2,160 Climbing Los Angeles Center
01:40AM 35.8008 -115.2717 186° South 287 330 11,800 1,920 Climbing Los Angeles Center
01:41AM 35.7008 -115.2889 188° South 338 389 14,100 2,280 Climbing Los Angeles Center
01:42AM 35.6225 -115.3631 218° Southwest 356 410 16,500 2,460 Climbing Los Angeles Center
01:43AM 35.5561 -115.4556 229° Southwest 357 411 19,200 2,340 Climbing Los Angeles Center
01:44AM 35.4878 -115.5469 227° Southwest 360 414 21,400 2,220 Climbing Los Angeles Center
01:45AM 35.4208 -115.6408 229° Southwest 363 418 23,800 2,160 Climbing Los Angeles Center
01:46AM 35.3506 -115.7325 227° Southwest 367 422 25,900 1,860 Climbing Los Angeles Center
01:47AM 35.2800 -115.8278 228° Southwest 373 429 27,700 1,860 Climbing Los Angeles Center
01:48AM 35.1911 -115.9439 227° Southwest 383 441 29,700 1,020 Climbing Los Angeles Center
01:49AM 35.1153 -116.0453 228° Southwest 396 456 29,900 120 Climbing Los Angeles Center
01:50AM 35.0406 -116.1428 227° Southwest 397 457 30,000  Climbing Los Angeles Center
01:51AM 34.9817 -116.2214 228° Southwest 394 453 29,900 -300 Descending Los Angeles Center
01:52AM 34.8892 -116.3394 226° Southwest 397 457 29,400 -840 Descending Los Angeles Center
01:53AM 34.8147 -116.4383 227° Southwest 397 457 28,300 -720 Descending Los Angeles Center
01:54AM 34.7358 -116.5200 220° Southwest 378 435 28,000 -180 Descending Los Angeles Center
01:55AM 34.6447 -116.6042 217° Southwest 404 465 27,900 -60 Descending Los Angeles Center
01:56AM 34.5364 -116.7061 218° Southwest 411 473 27,900  Level Los Angeles Center
01:57AM 34.4456 -116.7903 217° Southwest 409 471 27,900 -600 Level Los Angeles Center
01:58AM 34.3544 -116.8758 218° Southwest 412 474 26,700 -2,280 Descending Los Angeles Center
01:59AM 34.2503 -116.9728 218° Southwest 394 453 23,200 -3,000 Descending Los Angeles Center
02:00AM 34.1664 -117.0525 218° Southwest 383 441 20,500 -2,460 Descending Los Angeles Center
02:01AM 34.1167 -117.1000 218° Southwest 363 418 19,100 -1,560 Descending Southern California TRACON
02:02AM 34.0667 -117.2000 239° Southwest 305 351 17,800 -1,620 Descending Southern California TRACON
02:03AM 34.0500 -117.3000 259° West 292 336 15,800 -2,220 Descending Southern California TRACON
02:04AM 34.0333 -117.4000 259° West 295 339 13,400 -1,920 Descending Southern California TRACON
02:05AM 34.0333 -117.4833 270° West 280 322 12,000 -1,020 Descending Southern California TRACON
02:08AM 34.0056 -117.7147 262° West 279 321 10,000 -900 Descending Los Angeles Center
02:08AM 34.0000 -117.7667 263° West 266 306 9,300 -840 Descending Southern California TRACON
02:10AM 33.9833 -117.9333 263° West 238 274 8,000 -780 Descending Southern California TRACON
02:11AM 33.9667 -118.0167 256° West 234 269 7,000 -1,140 Descending Southern California TRACON
02:12AM 33.9667 -118.0833 270° West 232 267 5,700 -1,440 Descending Southern California TRACON
02:13AM 33.9667 -118.1667 270° West 229 264 4,200 -1,440 Descending Southern California TRACON
02:14AM 33.9569 -118.1911 244° Southwest 228 262 3,600 -1,200 Descending Los Angeles Center
02:15AM 33.9514 -118.2547 264° West 204 235 2,400 -1,200 Descending Los Angeles Center
02:16AM 33.9436 -118.3225 262° West 184 212 1,200 -1,020 Descending Los Angeles Center
02:17AM 33.9403 -118.3672 265° West 153 176 400 -600 Descending Los Angeles Center
02:18AM 33.9356 -118.4044 261° West 143 165 100 -300 Descending Los Angeles Center